createdAt,value
2023-03-29T00:00:36.626Z,99.90
2023-03-29T00:03:05.226Z,99.90
2023-03-29T00:05:35.154Z,99.90
2023-03-29T00:08:04.359Z,99.90
2023-03-29T00:10:33.975Z,99.90
2023-03-29T00:13:02.236Z,99.90
2023-03-29T00:15:32.063Z,99.90
2023-03-29T00:18:00.257Z,99.90
2023-03-29T00:20:28.784Z,99.90
2023-03-29T00:22:57.442Z,99.90
2023-03-29T00:25:25.699Z,99.90
2023-03-29T00:27:54.032Z,99.90
2023-03-29T00:30:22.242Z,99.90
2023-03-29T00:32:51.835Z,99.90
2023-03-29T00:35:20.228Z,99.90
2023-03-29T00:37:50.903Z,99.90
2023-03-29T00:40:20.142Z,99.90
2023-03-29T00:42:48.152Z,99.90
2023-03-29T00:45:21.036Z,99.90
2023-03-29T00:47:52.917Z,99.90
2023-03-29T00:50:26.302Z,99.90
2023-03-29T00:53:00.889Z,99.90
2023-03-29T00:55:33.175Z,99.90
2023-03-29T00:58:02.650Z,99.90
2023-03-29T01:00:35.236Z,99.90
2023-03-29T01:03:13.607Z,99.90
2023-03-29T01:05:45.697Z,99.90
2023-03-29T01:08:20.277Z,99.90
2023-03-29T01:10:53.914Z,99.90
2023-03-29T01:13:27.384Z,99.90
2023-03-29T01:15:57.248Z,99.90
2023-03-29T01:18:26.713Z,99.90
2023-03-29T01:21:10.485Z,99.90
2023-03-29T01:24:07.626Z,99.90
2023-03-29T01:26:48.581Z,99.90
2023-03-29T01:29:25.334Z,99.90
2023-03-29T01:31:59.341Z,99.90
2023-03-29T01:34:34.584Z,99.90
2023-03-29T01:37:08.838Z,99.90
2023-03-29T01:39:36.938Z,99.90
2023-03-29T01:42:16.526Z,99.90
2023-03-29T01:44:53.693Z,99.90
2023-03-29T01:47:31.463Z,99.90
2023-03-29T01:50:07.543Z,99.90
2023-03-29T01:52:41.408Z,99.90
2023-03-29T01:55:13.054Z,99.90
2023-03-29T01:57:44.846Z,99.90
2023-03-29T02:00:19.044Z,99.90
2023-03-29T02:02:49.735Z,99.90
2023-03-29T02:05:18.361Z,99.90
2023-03-29T02:07:48.601Z,99.90
2023-03-29T02:10:18.617Z,99.90
2023-03-29T02:12:46.825Z,99.90
2023-03-29T02:15:19.939Z,99.90
2023-03-29T02:17:49.327Z,99.90
2023-03-29T02:20:22.454Z,99.90
2023-03-29T02:22:58.477Z,99.90
2023-03-29T02:25:27.380Z,99.90
2023-03-29T02:27:55.918Z,99.90
2023-03-29T02:30:28.185Z,99.90
2023-03-29T02:33:02.014Z,99.90
2023-03-29T02:35:36.698Z,99.90
2023-03-29T02:38:08.851Z,99.90
2023-03-29T02:40:37.899Z,99.90
2023-03-29T02:43:08.580Z,99.90
2023-03-29T02:45:39.124Z,99.90
2023-03-29T02:48:12.489Z,99.90
2023-03-29T02:50:44.060Z,99.90
2023-03-29T02:53:17.659Z,99.90
2023-03-29T02:55:47.228Z,99.90
2023-03-29T02:58:15.728Z,99.90
2023-03-29T03:00:47.270Z,99.90
2023-03-29T03:03:16.820Z,99.90
2023-03-29T03:05:45.054Z,99.90
2023-03-29T03:08:13.495Z,99.90
2023-03-29T03:10:41.497Z,99.90
2023-03-29T03:13:09.471Z,99.90
2023-03-29T03:15:37.401Z,99.90
2023-03-29T03:18:07.066Z,99.90
2023-03-29T03:20:35.884Z,99.90
2023-03-29T03:23:04.122Z,99.90
2023-03-29T03:25:32.390Z,99.90
2023-03-29T03:28:01.076Z,99.90
2023-03-29T03:30:29.348Z,99.90
2023-03-29T03:32:57.968Z,99.90
2023-03-29T03:35:27.427Z,99.90
2023-03-29T03:37:55.537Z,99.90
2023-03-29T03:40:23.579Z,99.90
2023-03-29T03:42:51.822Z,99.90
2023-03-29T03:45:20.546Z,99.90
2023-03-29T03:47:48.586Z,99.90
2023-03-29T03:50:16.690Z,99.90
2023-03-29T03:52:46.604Z,99.90
2023-03-29T03:55:14.800Z,99.90
2023-03-29T03:57:43.179Z,99.90
2023-03-29T04:00:19.195Z,99.90
2023-03-29T04:02:48.357Z,99.90
2023-03-29T04:05:17.308Z,99.90
2023-03-29T04:07:46.892Z,99.90
2023-03-29T04:10:15.718Z,99.90
2023-03-29T04:12:43.944Z,99.90
2023-03-29T04:15:12.256Z,99.90
2023-03-29T04:17:40.793Z,99.90
2023-03-29T04:20:12.220Z,99.90
2023-03-29T04:22:40.993Z,99.90
2023-03-29T04:25:11.904Z,99.90
2023-03-29T04:27:40.326Z,99.90
2023-03-29T04:30:09.529Z,99.90
2023-03-29T04:32:38.265Z,99.90
2023-03-29T04:35:06.983Z,99.90
2023-03-29T04:37:35.286Z,99.90
2023-03-29T04:40:04.790Z,99.90
2023-03-29T04:42:34.865Z,99.90
2023-03-29T04:45:03.871Z,99.90
2023-03-29T04:47:32.740Z,99.90
2023-03-29T04:50:00.768Z,99.90
2023-03-29T04:52:32.979Z,99.90
2023-03-29T04:55:01.459Z,99.90
2023-03-29T04:57:30.606Z,99.90
2023-03-29T05:00:00.057Z,99.90
2023-03-29T05:02:30.857Z,99.90
2023-03-29T05:04:58.934Z,99.90
2023-03-29T05:07:26.910Z,99.90
2023-03-29T05:09:55.454Z,99.90
2023-03-29T05:12:23.434Z,99.90
2023-03-29T05:14:51.434Z,99.90
2023-03-29T05:17:21.544Z,99.90
2023-03-29T05:19:49.673Z,99.90
2023-03-29T05:22:18.102Z,99.90
2023-03-29T05:24:46.076Z,99.90
2023-03-29T05:27:14.237Z,99.90
2023-03-29T05:29:42.581Z,99.90
2023-03-29T05:32:10.593Z,99.90
2023-03-29T05:34:40.360Z,99.90
2023-03-29T05:37:08.352Z,99.90
2023-03-29T05:39:37.996Z,99.90
2023-03-29T05:42:06.750Z,99.90
2023-03-29T05:44:35.229Z,99.90
2023-03-29T05:47:03.512Z,99.90
2023-03-29T05:49:31.881Z,99.90
2023-03-29T05:52:01.438Z,99.90
2023-03-29T05:54:29.449Z,99.90
2023-03-29T05:56:57.500Z,99.90
2023-03-29T05:59:28.644Z,99.90
2023-03-29T06:01:57.743Z,99.90
2023-03-29T06:04:26.409Z,99.90
2023-03-29T06:06:55.012Z,99.90
2023-03-29T06:09:25.718Z,99.90
2023-03-29T06:11:56.709Z,99.90
2023-03-29T06:14:24.955Z,99.90
2023-03-29T06:16:53.465Z,99.90
2023-03-29T06:19:21.599Z,99.90
2023-03-29T06:21:50.029Z,99.90
2023-03-29T06:24:18.451Z,99.90
2023-03-29T06:26:48.063Z,99.90
2023-03-29T06:29:16.108Z,99.90
2023-03-29T06:31:44.172Z,99.90
2023-03-29T06:34:13.774Z,99.90
2023-03-29T06:36:42.206Z,99.90
2023-03-29T06:39:11.043Z,99.90
2023-03-29T06:41:39.256Z,99.90
2023-03-29T06:44:08.882Z,99.90
2023-03-29T06:46:37.590Z,99.90
2023-03-29T06:49:06.169Z,99.90
2023-03-29T06:51:34.250Z,99.90
2023-03-29T06:54:04.189Z,99.90
2023-03-29T06:56:32.201Z,99.90
2023-03-29T06:59:00.181Z,99.90
2023-03-29T07:01:32.826Z,99.90
2023-03-29T07:04:04.780Z,99.90
2023-03-29T07:06:33.713Z,99.90
2023-03-29T07:09:01.868Z,99.90
2023-03-29T07:11:30.970Z,99.90
2023-03-29T07:13:59.285Z,99.90
2023-03-29T07:16:27.848Z,99.90
2023-03-29T07:18:57.488Z,99.90
2023-03-29T07:21:26.576Z,99.90
2023-03-29T07:23:54.561Z,99.90
2023-03-29T07:26:29.029Z,99.90
2023-03-29T07:28:58.718Z,99.90
2023-03-29T07:31:29.335Z,99.90
2023-03-29T07:34:00.744Z,99.90
2023-03-29T07:36:29.276Z,99.90
2023-03-29T07:38:57.853Z,99.90
2023-03-29T07:41:25.904Z,99.90
2023-03-29T07:43:54.214Z,99.90
2023-03-29T07:46:22.490Z,99.90
2023-03-29T07:48:51.190Z,99.90
2023-03-29T07:51:20.692Z,99.90
2023-03-29T07:53:49.158Z,99.90
2023-03-29T07:56:17.194Z,99.90
2023-03-29T07:58:46.528Z,99.90
2023-03-29T08:01:18.827Z,99.90
2023-03-29T08:03:48.030Z,99.90
2023-03-29T08:06:17.172Z,99.90
2023-03-29T08:08:46.540Z,99.90
2023-03-29T08:11:15.298Z,99.90
2023-03-29T08:13:43.478Z,99.90
2023-03-29T08:16:11.808Z,99.90
2023-03-29T08:18:40.079Z,99.90
2023-03-29T08:21:08.934Z,99.90
2023-03-29T08:23:37.135Z,99.90
2023-03-29T08:26:11.469Z,99.90
2023-03-29T08:28:39.491Z,99.90
2023-03-29T08:31:09.805Z,99.90
2023-03-29T08:33:38.772Z,99.90
2023-03-29T08:36:07.335Z,99.90
2023-03-29T08:38:36.016Z,99.90
2023-03-29T08:41:19.767Z,99.90
2023-03-29T08:44:01.883Z,99.90
2023-03-29T08:46:37.349Z,99.90
2023-03-29T08:49:08.343Z,99.90
2023-03-29T08:51:39.865Z,99.90
2023-03-29T08:54:12.654Z,99.90
2023-03-29T08:56:46.998Z,99.90
2023-03-29T08:59:20.681Z,99.90
2023-03-29T09:01:51.839Z,99.90
2023-03-29T09:04:24.159Z,99.90
2023-03-29T09:06:52.437Z,99.90
2023-03-29T09:09:23.775Z,99.90
2023-03-29T09:12:04.981Z,99.90
2023-03-29T09:14:48.719Z,99.90
2023-03-29T09:17:32.516Z,99.90
2023-03-29T09:20:13.988Z,99.90
2023-03-29T09:22:48.142Z,99.90
2023-03-29T09:25:24.127Z,99.90
2023-03-29T09:28:01.734Z,99.90
2023-03-29T09:30:33.496Z,99.90
2023-03-29T09:33:07.638Z,99.90
2023-03-29T09:35:39.302Z,99.90
2023-03-29T09:38:10.919Z,99.90
2023-03-29T09:40:43.816Z,99.90
2023-03-29T09:43:17.691Z,96.30
2023-03-29T09:45:51.840Z,93.30
2023-03-29T09:48:21.836Z,92.50
2023-03-29T09:50:56.028Z,96.20
2023-03-29T09:53:25.449Z,96.60
2023-03-29T09:55:55.304Z,99.20
2023-03-29T09:58:28.179Z,99.80
2023-03-29T10:01:00.345Z,99.90
2023-03-29T10:03:31.253Z,99.90
2023-03-29T10:06:01.616Z,99.90
2023-03-29T10:08:31.939Z,99.90
2023-03-29T10:11:02.262Z,99.90
2023-03-29T10:13:34.549Z,99.90
2023-03-29T10:16:04.952Z,99.90
2023-03-29T10:18:34.477Z,99.90
2023-03-29T10:21:06.136Z,99.90
2023-03-29T10:23:35.965Z,99.90
2023-03-29T10:26:05.727Z,99.90
2023-03-29T10:28:37.320Z,99.90
2023-03-29T10:31:08.448Z,99.90
2023-03-29T10:33:37.754Z,99.90
2023-03-29T10:36:08.746Z,99.40
2023-03-29T10:38:38.619Z,99.80
2023-03-29T10:41:11.201Z,99.20
2023-03-29T10:43:45.372Z,98.40
2023-03-29T10:46:22.079Z,97.90
2023-03-29T10:48:52.320Z,98.00
2023-03-29T10:51:21.654Z,97.60
2023-03-29T10:53:49.735Z,97.40
2023-03-29T10:56:40.185Z,94.40
2023-03-29T10:59:30.177Z,93.90
2023-03-29T11:02:30.263Z,91.40
2023-03-29T11:05:10.516Z,90.00
2023-03-29T11:07:50.558Z,88.90
2023-03-29T11:10:33.869Z,90.20
2023-03-29T11:15:58.012Z,92.60
2023-03-29T11:18:41.211Z,92.80
2023-03-29T11:21:18.910Z,92.60
2023-03-29T11:23:54.788Z,93.10
2023-03-29T11:26:27.300Z,93.50
2023-03-29T11:29:02.610Z,93.80
2023-03-29T11:31:40.134Z,94.60
2023-03-29T11:34:21.808Z,96.50
2023-03-29T11:36:55.700Z,96.40
2023-03-29T11:39:31.568Z,95.80
2023-03-29T11:42:09.281Z,95.40
2023-03-29T11:44:39.395Z,95.30
2023-03-29T11:47:15.186Z,93.90
2023-03-29T11:49:49.261Z,93.70
2023-03-29T11:52:20.836Z,94.80
2023-03-29T11:54:53.439Z,94.20
2023-03-29T11:57:27.509Z,95.00
2023-03-29T12:00:02.557Z,94.50
2023-03-29T12:02:37.688Z,95.40
2023-03-29T12:05:14.543Z,94.10
2023-03-29T12:07:50.329Z,94.80
2023-03-29T12:10:21.235Z,94.40
2023-03-29T12:12:56.173Z,94.60
2023-03-29T12:15:26.792Z,94.70
2023-03-29T12:18:04.408Z,93.90
2023-03-29T12:20:36.315Z,94.90
2023-03-29T12:23:06.708Z,94.80
2023-03-29T12:25:46.584Z,94.40
2023-03-29T12:28:26.626Z,95.20
2023-03-29T12:31:05.209Z,95.90
2023-03-29T12:34:01.510Z,96.20
2023-03-29T12:36:55.743Z,94.70
2023-03-29T12:39:25.822Z,96.40
2023-03-29T12:41:54.031Z,94.80
2023-03-29T12:44:24.504Z,93.70
2023-03-29T12:46:59.435Z,92.70
2023-03-29T12:49:34.144Z,93.60
2023-03-29T12:52:05.074Z,92.50
2023-03-29T12:54:34.829Z,93.30
2023-03-29T12:57:19.460Z,91.10
2023-03-29T12:59:49.373Z,90.50
2023-03-29T13:02:38.022Z,90.70
2023-03-29T13:05:33.177Z,89.10
2023-03-29T13:08:12.684Z,89.20
2023-03-29T13:10:44.175Z,89.00
2023-03-29T13:13:18.214Z,86.90
2023-03-29T13:15:46.836Z,89.00
2023-03-29T13:18:38.757Z,88.80
2023-03-29T13:21:18.218Z,89.20
2023-03-29T13:23:54.759Z,90.40
2023-03-29T13:26:38.118Z,90.50
2023-03-29T13:29:38.026Z,91.80
2023-03-29T13:32:22.791Z,91.40
2023-03-29T13:34:58.470Z,91.00
2023-03-29T13:37:41.203Z,91.90
2023-03-29T13:40:34.702Z,91.40
2023-03-29T13:43:11.565Z,91.00
2023-03-29T13:45:40.517Z,90.60
2023-03-29T13:48:26.205Z,91.40
2023-03-29T13:50:56.338Z,91.30
2023-03-29T13:53:32.711Z,90.90
2023-03-29T13:56:01.744Z,91.70
2023-03-29T13:58:37.503Z,91.60
2023-03-29T14:01:12.983Z,91.20
2023-03-29T14:03:45.898Z,90.90
2023-03-29T14:06:16.923Z,90.50
2023-03-29T14:08:46.834Z,90.50
2023-03-29T14:11:24.054Z,90.50
2023-03-29T14:13:55.149Z,90.50
2023-03-29T14:16:24.459Z,90.40
2023-03-29T14:18:52.817Z,91.70
2023-03-29T14:21:22.135Z,91.70
2023-03-29T14:23:59.018Z,91.70
2023-03-29T14:26:32.379Z,91.40
2023-03-29T14:29:04.600Z,91.00
2023-03-29T14:31:35.038Z,90.90
2023-03-29T14:34:05.226Z,90.70
2023-03-29T14:36:34.382Z,90.50
2023-03-29T14:39:07.096Z,91.90
2023-03-29T14:41:38.481Z,91.40
2023-03-29T14:44:08.809Z,91.20
2023-03-29T14:46:37.326Z,92.00
2023-03-29T14:49:06.271Z,92.50
2023-03-29T14:51:34.704Z,92.30
2023-03-29T14:54:06.129Z,92.50
2023-03-29T14:56:35.055Z,92.60
2023-03-29T14:59:05.314Z,92.80
2023-03-29T15:01:33.464Z,92.10
2023-03-29T15:04:06.191Z,94.10
2023-03-29T15:06:38.826Z,94.40
2023-03-29T15:09:09.386Z,94.20
2023-03-29T15:11:39.751Z,94.40
2023-03-29T15:14:10.231Z,93.70
2023-03-29T15:16:42.257Z,94.80
2023-03-29T15:19:16.129Z,95.00
2023-03-29T15:21:45.150Z,94.60
2023-03-29T15:24:22.862Z,94.20
2023-03-29T15:27:04.457Z,94.50
2023-03-29T15:29:40.552Z,94.40
2023-03-29T15:32:09.331Z,91.20
2023-03-29T15:34:38.331Z,90.40
2023-03-29T15:37:07.895Z,90.80
2023-03-29T15:39:44.188Z,90.00
2023-03-29T15:42:12.642Z,90.40
2023-03-29T15:44:41.218Z,90.70
2023-03-29T15:47:11.529Z,90.80
2023-03-29T15:49:39.748Z,91.20
2023-03-29T15:52:08.210Z,91.40
2023-03-29T15:54:37.718Z,92.10
2023-03-29T15:57:08.401Z,91.70
2023-03-29T15:59:37.302Z,91.90
2023-03-29T16:02:05.763Z,92.50
2023-03-29T16:04:33.822Z,92.80
2023-03-29T16:07:02.231Z,93.20
2023-03-29T16:09:30.723Z,93.60
2023-03-29T16:12:02.802Z,94.30
2023-03-29T16:14:33.184Z,95.20
2023-03-29T16:17:03.268Z,96.40
2023-03-29T16:19:32.639Z,98.70
2023-03-29T16:22:01.776Z,99.60
2023-03-29T16:24:32.379Z,99.90
2023-03-29T16:27:03.029Z,99.90
2023-03-29T16:29:31.719Z,99.90
2023-03-29T16:31:59.890Z,99.90
2023-03-29T16:34:30.520Z,99.90
2023-03-29T16:36:58.720Z,99.90
2023-03-29T16:39:27.063Z,99.90
2023-03-29T16:41:55.066Z,99.90
2023-03-29T16:44:27.022Z,99.90
2023-03-29T16:46:57.421Z,99.90
2023-03-29T16:49:26.038Z,99.90
2023-03-29T16:51:54.159Z,99.90
2023-03-29T16:54:25.617Z,99.90
2023-03-29T16:56:53.974Z,99.90
2023-03-29T16:59:22.402Z,99.90
2023-03-29T17:01:52.389Z,99.90
2023-03-29T17:04:20.591Z,99.90
2023-03-29T17:06:48.721Z,99.90
2023-03-29T17:09:17.626Z,99.90
2023-03-29T17:11:46.303Z,99.90
2023-03-29T17:14:15.032Z,99.90
2023-03-29T17:16:43.304Z,99.90
2023-03-29T17:19:12.979Z,99.90
2023-03-29T17:21:41.112Z,99.90
2023-03-29T17:24:10.527Z,99.90
2023-03-29T17:26:38.856Z,99.90
2023-03-29T17:29:06.915Z,99.90
2023-03-29T17:31:36.667Z,99.90
2023-03-29T17:34:04.927Z,99.90
2023-03-29T17:36:37.376Z,99.90
2023-03-29T17:39:06.012Z,99.90
2023-03-29T17:41:34.118Z,99.90
2023-03-29T17:44:02.227Z,99.90
2023-03-29T17:46:30.365Z,99.90
2023-03-29T17:48:59.199Z,99.90
2023-03-29T17:51:28.122Z,99.90
2023-03-29T17:53:58.277Z,99.90
2023-03-29T17:56:26.574Z,99.90
2023-03-29T17:58:54.938Z,99.90
2023-03-29T18:01:23.127Z,99.90
2023-03-29T18:03:51.983Z,99.90
2023-03-29T18:06:20.917Z,99.90
2023-03-29T18:08:49.251Z,99.90
2023-03-29T18:11:22.583Z,99.90
2023-03-29T18:13:51.332Z,99.90
2023-03-29T18:16:20.783Z,99.90
2023-03-29T18:18:49.580Z,99.90
2023-03-29T18:21:18.539Z,99.90
2023-03-29T18:23:47.549Z,99.90
2023-03-29T18:26:16.595Z,99.90
2023-03-29T18:28:47.916Z,99.90
2023-03-29T18:31:16.594Z,99.90
2023-03-29T18:33:44.741Z,99.90
2023-03-29T18:36:13.551Z,99.90
2023-03-29T18:38:43.305Z,99.90
2023-03-29T18:41:13.401Z,99.90
2023-03-29T18:43:43.046Z,99.90
2023-03-29T18:46:12.499Z,99.90
2023-03-29T18:48:41.151Z,99.90
2023-03-29T18:51:10.246Z,99.90
2023-03-29T18:53:42.025Z,99.90
2023-03-29T18:56:10.208Z,99.90
2023-03-29T18:58:38.353Z,99.90
2023-03-29T19:01:07.855Z,99.90
2023-03-29T19:03:37.793Z,99.90
2023-03-29T19:06:06.976Z,99.90
2023-03-29T19:08:36.664Z,99.90
2023-03-29T19:11:07.397Z,99.90
2023-03-29T19:13:35.563Z,99.90
2023-03-29T19:16:04.334Z,99.90
2023-03-29T19:18:33.077Z,99.90
2023-03-29T19:21:02.607Z,99.90
2023-03-29T19:23:30.686Z,99.90
2023-03-29T19:26:00.269Z,99.90
2023-03-29T19:28:28.488Z,99.90
2023-03-29T19:30:57.770Z,99.90
2023-03-29T19:33:26.052Z,99.90
2023-03-29T19:35:54.383Z,99.90
2023-03-29T19:38:23.972Z,99.90
2023-03-29T19:40:52.901Z,99.90
2023-03-29T19:43:22.032Z,99.90
2023-03-29T19:45:51.876Z,99.90
2023-03-29T19:48:23.588Z,99.90
2023-03-29T19:50:52.300Z,99.90
2023-03-29T19:53:20.341Z,99.90
2023-03-29T19:55:50.281Z,99.90
2023-03-29T19:58:18.307Z,99.90
2023-03-29T20:00:46.681Z,99.90
2023-03-29T20:03:15.737Z,99.90
2023-03-29T20:05:44.408Z,99.90
2023-03-29T20:08:12.661Z,99.90
2023-03-29T20:10:40.652Z,99.90
2023-03-29T20:13:10.656Z,99.90
2023-03-29T20:15:38.907Z,99.90
2023-03-29T20:18:07.991Z,99.90
2023-03-29T20:20:39.646Z,99.90
2023-03-29T20:23:08.114Z,99.90
2023-03-29T20:25:36.772Z,99.90
2023-03-29T20:28:06.570Z,99.90
2023-03-29T20:30:36.242Z,99.90
2023-03-29T20:33:04.950Z,99.90
2023-03-29T20:35:34.011Z,99.90
2023-03-29T20:38:02.118Z,99.90
2023-03-29T20:40:31.577Z,99.90
2023-03-29T20:42:59.607Z,99.90
2023-03-29T20:45:28.017Z,99.90
2023-03-29T20:48:01.996Z,99.90
2023-03-29T20:50:30.312Z,99.90
2023-03-29T20:53:03.752Z,99.90
2023-03-29T20:55:33.562Z,99.90
2023-03-29T20:58:03.039Z,99.90
2023-03-29T21:00:33.468Z,99.90
2023-03-29T21:03:04.121Z,99.90
2023-03-29T21:05:34.435Z,99.90
2023-03-29T21:08:03.712Z,99.90
2023-03-29T21:10:31.975Z,99.90
2023-03-29T21:13:00.517Z,99.90
2023-03-29T21:15:30.687Z,99.90
2023-03-29T21:17:59.778Z,99.90
2023-03-29T21:20:29.435Z,99.90
2023-03-29T21:22:57.680Z,99.90
2023-03-29T21:25:25.722Z,99.90
2023-03-29T21:27:53.733Z,99.90
2023-03-29T21:30:22.022Z,99.90
2023-03-29T21:32:50.160Z,99.90
2023-03-29T21:35:18.356Z,99.90
2023-03-29T21:37:47.719Z,99.90
2023-03-29T21:40:15.684Z,99.90
2023-03-29T21:42:44.050Z,99.90
2023-03-29T21:45:12.893Z,99.90
2023-03-29T21:47:41.194Z,99.90
2023-03-29T21:50:10.702Z,99.90
2023-03-29T21:52:38.893Z,99.90
2023-03-29T21:55:09.743Z,99.90
2023-03-29T21:57:37.838Z,99.90
2023-03-29T22:00:10.934Z,99.90
2023-03-29T22:02:39.543Z,99.90
2023-03-29T22:05:07.951Z,99.90
2023-03-29T22:07:38.826Z,99.90
2023-03-29T22:10:11.572Z,99.90
2023-03-29T22:12:41.362Z,99.90
2023-03-29T22:15:11.662Z,99.90
2023-03-29T22:17:44.560Z,99.90
2023-03-29T22:20:13.866Z,99.90
2023-03-29T22:22:45.215Z,99.90
2023-03-29T22:25:14.806Z,99.90
2023-03-29T22:27:43.830Z,99.90
2023-03-29T22:30:13.140Z,99.90
2023-03-29T22:32:41.693Z,99.90
2023-03-29T22:35:10.791Z,99.90
2023-03-29T22:37:42.292Z,99.90
2023-03-29T22:40:12.057Z,99.90
2023-03-29T22:42:42.494Z,99.90
2023-03-29T22:45:11.537Z,99.90
2023-03-29T22:47:39.838Z,99.90
2023-03-29T22:50:08.940Z,99.90
2023-03-29T22:52:36.960Z,99.90
2023-03-29T22:55:06.126Z,99.90
2023-03-29T22:57:34.530Z,99.90
2023-03-29T23:00:08.646Z,99.90
2023-03-29T23:02:36.979Z,99.90
2023-03-29T23:05:05.197Z,99.90
2023-03-29T23:07:36.989Z,99.90
2023-03-29T23:10:06.427Z,99.90
2023-03-29T23:12:36.065Z,99.90
2023-03-29T23:15:07.990Z,99.90
2023-03-29T23:17:37.104Z,99.90
2023-03-29T23:20:06.964Z,99.90
2023-03-29T23:22:36.365Z,99.90
2023-03-29T23:25:04.795Z,99.90
2023-03-29T23:27:33.165Z,99.90
2023-03-29T23:30:01.792Z,99.90
2023-03-29T23:32:31.781Z,99.90
2023-03-29T23:35:01.205Z,99.90
2023-03-29T23:37:29.283Z,99.90
2023-03-29T23:39:57.430Z,99.90
2023-03-29T23:42:25.932Z,99.90
2023-03-29T23:44:53.932Z,99.90
2023-03-29T23:47:22.002Z,99.90
2023-03-29T23:49:53.179Z,99.90
2023-03-29T23:52:21.238Z,99.90
2023-03-29T23:54:51.856Z,99.90
2023-03-29T23:57:21.332Z,99.90
2023-03-29T23:59:52.529Z,99.90
